sensor_id;sensor_type;location;lat;lon;timestamp;temperature;humidity
64062;DHT22;50308;47.438;-1.528;2022-08-02T00:00:00;26.10;52.10
64062;DHT22;50308;47.438;-1.528;2022-08-02T00:02:27;26.10;52.10
64062;DHT22;50308;47.438;-1.528;2022-08-02T00:04:52;26.10;52.20
64062;DHT22;50308;47.438;-1.528;2022-08-02T00:07:18;26.10;52.20
64062;DHT22;50308;47.438;-1.528;2022-08-02T00:09:44;26.10;52.20
64062;DHT22;50308;47.438;-1.528;2022-08-02T00:12:10;26.10;52.30
64062;DHT22;50308;47.438;-1.528;2022-08-02T00:14:36;26.10;52.30
64062;DHT22;50308;47.438;-1.528;2022-08-02T00:17:03;26.10;52.30
64062;DHT22;50308;47.438;-1.528;2022-08-02T00:19:29;26.00;52.30
64062;DHT22;50308;47.438;-1.528;2022-08-02T00:21:55;26.10;52.40
64062;DHT22;50308;47.438;-1.528;2022-08-02T00:24:20;26.10;52.40
64062;DHT22;50308;47.438;-1.528;2022-08-02T00:26:46;26.00;52.40
64062;DHT22;50308;47.438;-1.528;2022-08-02T00:29:12;26.00;52.40
64062;DHT22;50308;47.438;-1.528;2022-08-02T00:31:37;26.00;52.40
64062;DHT22;50308;47.438;-1.528;2022-08-02T00:34:03;26.00;52.50
64062;DHT22;50308;47.438;-1.528;2022-08-02T00:36:29;26.00;52.50
64062;DHT22;50308;47.438;-1.528;2022-08-02T00:38:55;26.00;52.60
64062;DHT22;50308;47.438;-1.528;2022-08-02T00:41:21;26.00;52.50
64062;DHT22;50308;47.438;-1.528;2022-08-02T00:43:48;26.00;52.60
64062;DHT22;50308;47.438;-1.528;2022-08-02T00:46:16;26.00;52.60
64062;DHT22;50308;47.438;-1.528;2022-08-02T00:48:42;26.00;52.60
64062;DHT22;50308;47.438;-1.528;2022-08-02T00:51:07;26.00;52.60
64062;DHT22;50308;47.438;-1.528;2022-08-02T00:53:33;26.00;52.60
64062;DHT22;50308;47.438;-1.528;2022-08-02T00:55:59;26.00;52.60
64062;DHT22;50308;47.438;-1.528;2022-08-02T00:58:26;25.90;52.60
64062;DHT22;50308;47.438;-1.528;2022-08-02T01:00:51;26.00;52.60
64062;DHT22;50308;47.438;-1.528;2022-08-02T01:03:17;25.90;52.50
64062;DHT22;50308;47.438;-1.528;2022-08-02T01:05:43;25.90;52.60
64062;DHT22;50308;47.438;-1.528;2022-08-02T01:08:09;25.90;52.60
64062;DHT22;50308;47.438;-1.528;2022-08-02T01:10:34;25.90;52.50
64062;DHT22;50308;47.438;-1.528;2022-08-02T01:13:00;25.90;52.50
64062;DHT22;50308;47.438;-1.528;2022-08-02T01:15:26;25.90;52.60
64062;DHT22;50308;47.438;-1.528;2022-08-02T01:18:02;25.90;52.60
64062;DHT22;50308;47.438;-1.528;2022-08-02T01:28:39;25.80;52.60
64062;DHT22;50308;47.438;-1.528;2022-08-02T01:34:50;25.80;52.60
64062;DHT22;50308;47.438;-1.528;2022-08-02T01:39:42;25.80;52.50
64062;DHT22;50308;47.438;-1.528;2022-08-02T01:42:10;25.80;52.50
64062;DHT22;50308;47.438;-1.528;2022-08-02T01:44:39;25.80;52.50
64062;DHT22;50308;47.438;-1.528;2022-08-02T01:47:13;25.80;52.60
64062;DHT22;50308;47.438;-1.528;2022-08-02T01:49:41;25.80;52.60
64062;DHT22;50308;47.438;-1.528;2022-08-02T01:52:10;25.80;52.60
64062;DHT22;50308;47.438;-1.528;2022-08-02T01:55:02;25.80;52.60
64062;DHT22;50308;47.438;-1.528;2022-08-02T01:57:36;25.70;52.50
64062;DHT22;50308;47.438;-1.528;2022-08-02T02:00:05;25.80;52.60
64062;DHT22;50308;47.438;-1.528;2022-08-02T02:02:33;25.70;52.50
64062;DHT22;50308;47.438;-1.528;2022-08-02T02:05:01;25.70;52.60
64062;DHT22;50308;47.438;-1.528;2022-08-02T02:07:29;25.70;52.50
64062;DHT22;50308;47.438;-1.528;2022-08-02T02:09:57;25.70;52.50
64062;DHT22;50308;47.438;-1.528;2022-08-02T02:12:24;25.70;52.60
64062;DHT22;50308;47.438;-1.528;2022-08-02T02:14:51;25.60;52.50
64062;DHT22;50308;47.438;-1.528;2022-08-02T02:17:21;25.60;52.60
64062;DHT22;50308;47.438;-1.528;2022-08-02T02:19:48;25.60;52.60
64062;DHT22;50308;47.438;-1.528;2022-08-02T02:22:15;25.60;52.50
64062;DHT22;50308;47.438;-1.528;2022-08-02T02:24:41;25.60;52.50
64062;DHT22;50308;47.438;-1.528;2022-08-02T02:27:08;25.60;52.50
64062;DHT22;50308;47.438;-1.528;2022-08-02T02:29:40;25.60;52.50
64062;DHT22;50308;47.438;-1.528;2022-08-02T02:32:08;25.60;52.50
64062;DHT22;50308;47.438;-1.528;2022-08-02T02:34:40;25.50;52.40
64062;DHT22;50308;47.438;-1.528;2022-08-02T02:37:20;25.50;52.40
64062;DHT22;50308;47.438;-1.528;2022-08-02T02:39:49;25.50;52.50
64062;DHT22;50308;47.438;-1.528;2022-08-02T02:42:18;25.50;52.50
64062;DHT22;50308;47.438;-1.528;2022-08-02T02:44:45;25.50;52.50
64062;DHT22;50308;47.438;-1.528;2022-08-02T02:47:14;25.50;52.50
64062;DHT22;50308;47.438;-1.528;2022-08-02T02:49:42;25.50;52.50
64062;DHT22;50308;47.438;-1.528;2022-08-02T02:52:09;25.50;52.50
64062;DHT22;50308;47.438;-1.528;2022-08-02T02:54:38;25.50;52.50
64062;DHT22;50308;47.438;-1.528;2022-08-02T02:57:04;25.50;52.50
64062;DHT22;50308;47.438;-1.528;2022-08-02T02:59:33;25.50;52.50
64062;DHT22;50308;47.438;-1.528;2022-08-02T03:01:59;25.50;52.50
64062;DHT22;50308;47.438;-1.528;2022-08-02T03:04:27;25.50;52.50
64062;DHT22;50308;47.438;-1.528;2022-08-02T03:06:53;25.40;52.40
64062;DHT22;50308;47.438;-1.528;2022-08-02T03:09:19;25.40;52.40
64062;DHT22;50308;47.438;-1.528;2022-08-02T03:11:45;25.40;52.40
64062;DHT22;50308;47.438;-1.528;2022-08-02T03:14:12;25.40;52.40
64062;DHT22;50308;47.438;-1.528;2022-08-02T03:16:45;25.40;52.50
64062;DHT22;50308;47.438;-1.528;2022-08-02T03:19:11;25.40;52.50
64062;DHT22;50308;47.438;-1.528;2022-08-02T03:21:37;25.30;52.40
64062;DHT22;50308;47.438;-1.528;2022-08-02T03:24:03;25.30;52.40
64062;DHT22;50308;47.438;-1.528;2022-08-02T03:26:29;25.30;52.40
64062;DHT22;50308;47.438;-1.528;2022-08-02T03:28:55;25.30;52.60
64062;DHT22;50308;47.438;-1.528;2022-08-02T03:31:21;25.30;52.50
64062;DHT22;50308;47.438;-1.528;2022-08-02T03:33:47;25.30;52.60
64062;DHT22;50308;47.438;-1.528;2022-08-02T03:36:14;25.30;52.60
64062;DHT22;50308;47.438;-1.528;2022-08-02T03:38:43;25.30;52.60
64062;DHT22;50308;47.438;-1.528;2022-08-02T03:41:11;25.20;52.40
64062;DHT22;50308;47.438;-1.528;2022-08-02T03:43:38;25.30;52.50
64062;DHT22;50308;47.438;-1.528;2022-08-02T03:46:06;25.20;52.50
64062;DHT22;50308;47.438;-1.528;2022-08-02T03:48:32;25.20;52.50
64062;DHT22;50308;47.438;-1.528;2022-08-02T03:50:59;25.20;52.50
64062;DHT22;50308;47.438;-1.528;2022-08-02T03:53:26;25.20;52.50
64062;DHT22;50308;47.438;-1.528;2022-08-02T03:55:52;25.20;52.50
64062;DHT22;50308;47.438;-1.528;2022-08-02T03:58:19;25.20;52.50
64062;DHT22;50308;47.438;-1.528;2022-08-02T04:00:45;25.20;52.50
64062;DHT22;50308;47.438;-1.528;2022-08-02T04:03:11;25.20;52.50
64062;DHT22;50308;47.438;-1.528;2022-08-02T04:05:37;25.20;52.50
64062;DHT22;50308;47.438;-1.528;2022-08-02T04:08:03;25.20;52.60
64062;DHT22;50308;47.438;-1.528;2022-08-02T04:10:29;25.10;52.40
64062;DHT22;50308;47.438;-1.528;2022-08-02T04:12:55;25.10;52.50
64062;DHT22;50308;47.438;-1.528;2022-08-02T04:15:22;25.10;52.50
64062;DHT22;50308;47.438;-1.528;2022-08-02T04:17:55;25.10;52.40
64062;DHT22;50308;47.438;-1.528;2022-08-02T04:20:27;25.10;52.50
64062;DHT22;50308;47.438;-1.528;2022-08-02T04:23:00;25.10;52.50
64062;DHT22;50308;47.438;-1.528;2022-08-02T04:25:27;25.00;52.50
64062;DHT22;50308;47.438;-1.528;2022-08-02T04:27:53;25.00;52.50
64062;DHT22;50308;47.438;-1.528;2022-08-02T04:30:20;25.00;52.50
64062;DHT22;50308;47.438;-1.528;2022-08-02T04:32:46;25.00;52.50
64062;DHT22;50308;47.438;-1.528;2022-08-02T04:35:12;25.00;52.50
64062;DHT22;50308;47.438;-1.528;2022-08-02T04:37:39;25.00;52.50
64062;DHT22;50308;47.438;-1.528;2022-08-02T04:40:09;25.00;52.50
64062;DHT22;50308;47.438;-1.528;2022-08-02T04:42:35;25.00;52.60
64062;DHT22;50308;47.438;-1.528;2022-08-02T04:45:01;25.00;52.50
64062;DHT22;50308;47.438;-1.528;2022-08-02T04:47:27;25.00;52.50
64062;DHT22;50308;47.438;-1.528;2022-08-02T04:49:53;25.00;52.50
64062;DHT22;50308;47.438;-1.528;2022-08-02T04:52:19;25.00;52.60
64062;DHT22;50308;47.438;-1.528;2022-08-02T04:54:45;25.00;52.50
64062;DHT22;50308;47.438;-1.528;2022-08-02T04:57:11;25.00;52.60
64062;DHT22;50308;47.438;-1.528;2022-08-02T04:59:55;24.90;52.60
64062;DHT22;50308;47.438;-1.528;2022-08-02T05:02:21;25.00;52.60
64062;DHT22;50308;47.438;-1.528;2022-08-02T05:04:46;24.90;52.60
64062;DHT22;50308;47.438;-1.528;2022-08-02T05:07:12;24.90;52.60
64062;DHT22;50308;47.438;-1.528;2022-08-02T05:09:38;24.90;52.60
64062;DHT22;50308;47.438;-1.528;2022-08-02T05:12:04;24.90;52.60
64062;DHT22;50308;47.438;-1.528;2022-08-02T05:14:30;24.90;52.60
64062;DHT22;50308;47.438;-1.528;2022-08-02T05:16:55;24.90;52.70
64062;DHT22;50308;47.438;-1.528;2022-08-02T05:19:21;24.90;52.70
64062;DHT22;50308;47.438;-1.528;2022-08-02T05:21:47;24.80;52.70
64062;DHT22;50308;47.438;-1.528;2022-08-02T05:24:12;24.90;52.80
64062;DHT22;50308;47.438;-1.528;2022-08-02T05:26:38;24.90;52.90
64062;DHT22;50308;47.438;-1.528;2022-08-02T05:29:04;24.90;52.90
64062;DHT22;50308;47.438;-1.528;2022-08-02T05:31:30;24.80;52.80
64062;DHT22;50308;47.438;-1.528;2022-08-02T05:33:56;24.80;52.90
64062;DHT22;50308;47.438;-1.528;2022-08-02T05:36:22;24.80;52.90
64062;DHT22;50308;47.438;-1.528;2022-08-02T05:38:48;24.90;52.90
64062;DHT22;50308;47.438;-1.528;2022-08-02T05:41:19;24.80;52.90
64062;DHT22;50308;47.438;-1.528;2022-08-02T05:43:46;24.90;53.00
64062;DHT22;50308;47.438;-1.528;2022-08-02T05:46:12;24.90;53.10
64062;DHT22;50308;47.438;-1.528;2022-08-02T05:48:37;24.80;53.00
64062;DHT22;50308;47.438;-1.528;2022-08-02T05:51:05;24.90;53.10
64062;DHT22;50308;47.438;-1.528;2022-08-02T05:53:45;24.90;53.10
64062;DHT22;50308;47.438;-1.528;2022-08-02T05:56:24;24.90;53.20
64062;DHT22;50308;47.438;-1.528;2022-08-02T05:58:57;24.90;53.20
64062;DHT22;50308;47.438;-1.528;2022-08-02T06:01:36;24.90;53.30
64062;DHT22;50308;47.438;-1.528;2022-08-02T06:04:08;24.90;53.40
64062;DHT22;50308;47.438;-1.528;2022-08-02T06:06:35;24.90;53.40
64062;DHT22;50308;47.438;-1.528;2022-08-02T06:09:03;24.90;53.40
64062;DHT22;50308;47.438;-1.528;2022-08-02T06:11:38;24.90;53.50
64062;DHT22;50308;47.438;-1.528;2022-08-02T06:14:08;24.90;53.50
64062;DHT22;50308;47.438;-1.528;2022-08-02T06:16:34;25.00;53.60
64062;DHT22;50308;47.438;-1.528;2022-08-02T06:19:01;25.00;53.70
64062;DHT22;50308;47.438;-1.528;2022-08-02T06:21:27;24.90;53.60
64062;DHT22;50308;47.438;-1.528;2022-08-02T06:23:54;25.00;53.80
64062;DHT22;50308;47.438;-1.528;2022-08-02T06:26:22;25.00;53.80
64062;DHT22;50308;47.438;-1.528;2022-08-02T06:28:48;25.00;53.80
64062;DHT22;50308;47.438;-1.528;2022-08-02T06:31:14;25.00;54.90
64062;DHT22;50308;47.438;-1.528;2022-08-02T06:33:40;25.00;53.80
64062;DHT22;50308;47.438;-1.528;2022-08-02T06:36:15;25.00;53.90
64062;DHT22;50308;47.438;-1.528;2022-08-02T06:41:20;25.00;53.90
64062;DHT22;50308;47.438;-1.528;2022-08-02T06:44:02;25.00;53.90
64062;DHT22;50308;47.438;-1.528;2022-08-02T06:46:29;25.00;53.90
64062;DHT22;50308;47.438;-1.528;2022-08-02T06:48:55;25.00;53.80
64062;DHT22;50308;47.438;-1.528;2022-08-02T06:51:21;25.00;53.80
64062;DHT22;50308;47.438;-1.528;2022-08-02T06:53:47;25.10;53.90
64062;DHT22;50308;47.438;-1.528;2022-08-02T06:56:14;25.10;53.90
64062;DHT22;50308;47.438;-1.528;2022-08-02T06:58:39;25.10;53.90
64062;DHT22;50308;47.438;-1.528;2022-08-02T07:01:06;25.10;53.90
64062;DHT22;50308;47.438;-1.528;2022-08-02T07:03:36;25.10;53.80
64062;DHT22;50308;47.438;-1.528;2022-08-02T07:06:02;25.10;53.80
64062;DHT22;50308;47.438;-1.528;2022-08-02T07:08:29;25.10;53.80
64062;DHT22;50308;47.438;-1.528;2022-08-02T07:10:58;25.10;53.80
64062;DHT22;50308;47.438;-1.528;2022-08-02T07:13:26;25.10;53.80
64062;DHT22;50308;47.438;-1.528;2022-08-02T07:15:52;25.10;53.80
64062;DHT22;50308;47.438;-1.528;2022-08-02T07:18:18;25.10;53.80
64062;DHT22;50308;47.438;-1.528;2022-08-02T07:20:44;25.10;53.70
64062;DHT22;50308;47.438;-1.528;2022-08-02T07:23:10;25.10;53.70
64062;DHT22;50308;47.438;-1.528;2022-08-02T07:25:36;25.20;53.90
64062;DHT22;50308;47.438;-1.528;2022-08-02T07:28:02;25.20;53.80
64062;DHT22;50308;47.438;-1.528;2022-08-02T07:30:28;25.20;53.80
64062;DHT22;50308;47.438;-1.528;2022-08-02T07:32:54;25.20;53.80
64062;DHT22;50308;47.438;-1.528;2022-08-02T07:35:20;25.20;53.80
64062;DHT22;50308;47.438;-1.528;2022-08-02T07:37:46;25.20;53.80
64062;DHT22;50308;47.438;-1.528;2022-08-02T07:40:14;25.30;53.80
64062;DHT22;50308;47.438;-1.528;2022-08-02T07:42:41;25.30;54.80
64062;DHT22;50308;47.438;-1.528;2022-08-02T07:45:07;25.30;53.80
64062;DHT22;50308;47.438;-1.528;2022-08-02T07:47:37;25.30;53.60
64062;DHT22;50308;47.438;-1.528;2022-08-02T07:50:04;25.40;53.60
64062;DHT22;50308;47.438;-1.528;2022-08-02T07:52:30;25.30;53.50
64062;DHT22;50308;47.438;-1.528;2022-08-02T07:54:55;25.30;53.50
64062;DHT22;50308;47.438;-1.528;2022-08-02T07:57:22;25.30;53.50
64062;DHT22;50308;47.438;-1.528;2022-08-02T07:59:49;25.40;53.40
64062;DHT22;50308;47.438;-1.528;2022-08-02T08:02:16;25.40;53.30
64062;DHT22;50308;47.438;-1.528;2022-08-02T08:04:42;25.40;53.40
64062;DHT22;50308;47.438;-1.528;2022-08-02T08:07:08;25.50;53.30
64062;DHT22;50308;47.438;-1.528;2022-08-02T08:09:37;25.50;53.20
64062;DHT22;50308;47.438;-1.528;2022-08-02T08:12:10;25.50;53.30
64062;DHT22;50308;47.438;-1.528;2022-08-02T08:14:37;25.50;53.10
64062;DHT22;50308;47.438;-1.528;2022-08-02T08:17:05;25.50;53.00
64062;DHT22;50308;47.438;-1.528;2022-08-02T08:19:31;25.50;53.00
64062;DHT22;50308;47.438;-1.528;2022-08-02T08:21:57;25.50;53.10
64062;DHT22;50308;47.438;-1.528;2022-08-02T08:24:27;25.50;52.90
64062;DHT22;50308;47.438;-1.528;2022-08-02T08:26:54;25.50;52.80
64062;DHT22;50308;47.438;-1.528;2022-08-02T08:29:20;25.50;52.70
64062;DHT22;50308;47.438;-1.528;2022-08-02T08:31:46;25.50;52.70
64062;DHT22;50308;47.438;-1.528;2022-08-02T08:34:12;25.50;52.70
64062;DHT22;50308;47.438;-1.528;2022-08-02T08:36:38;25.50;52.80
64062;DHT22;50308;47.438;-1.528;2022-08-02T08:39:04;25.60;52.80
64062;DHT22;50308;47.438;-1.528;2022-08-02T08:41:30;25.60;52.80
64062;DHT22;50308;47.438;-1.528;2022-08-02T08:43:56;25.60;52.60
64062;DHT22;50308;47.438;-1.528;2022-08-02T08:46:26;25.60;52.50
64062;DHT22;50308;47.438;-1.528;2022-08-02T08:49:02;25.60;52.40
64062;DHT22;50308;47.438;-1.528;2022-08-02T08:51:35;25.60;52.40
64062;DHT22;50308;47.438;-1.528;2022-08-02T08:54:03;25.70;52.30
64062;DHT22;50308;47.438;-1.528;2022-08-02T08:56:33;25.70;52.30
64062;DHT22;50308;47.438;-1.528;2022-08-02T08:58:59;25.70;52.20
64062;DHT22;50308;47.438;-1.528;2022-08-02T09:01:25;25.70;52.30
64062;DHT22;50308;47.438;-1.528;2022-08-02T09:03:51;25.70;52.10
64062;DHT22;50308;47.438;-1.528;2022-08-02T09:06:17;25.70;52.10
64062;DHT22;50308;47.438;-1.528;2022-08-02T09:08:43;25.70;52.00
64062;DHT22;50308;47.438;-1.528;2022-08-02T09:11:12;25.70;53.00
64062;DHT22;50308;47.438;-1.528;2022-08-02T09:13:48;25.80;52.00
64062;DHT22;50308;47.438;-1.528;2022-08-02T09:16:14;25.80;52.00
64062;DHT22;50308;47.438;-1.528;2022-08-02T09:18:44;25.80;52.00
64062;DHT22;50308;47.438;-1.528;2022-08-02T09:21:11;25.80;52.00
64062;DHT22;50308;47.438;-1.528;2022-08-02T09:23:41;25.80;51.90
64062;DHT22;50308;47.438;-1.528;2022-08-02T09:26:09;25.80;51.90
64062;DHT22;50308;47.438;-1.528;2022-08-02T09:28:40;25.80;51.90
64062;DHT22;50308;47.438;-1.528;2022-08-02T09:31:09;25.80;51.80
64062;DHT22;50308;47.438;-1.528;2022-08-02T09:33:36;25.80;51.80
64062;DHT22;50308;47.438;-1.528;2022-08-02T09:36:07;25.80;51.80
64062;DHT22;50308;47.438;-1.528;2022-08-02T09:38:34;25.80;51.80
64062;DHT22;50308;47.438;-1.528;2022-08-02T09:41:02;25.80;51.70
64062;DHT22;50308;47.438;-1.528;2022-08-02T09:43:36;25.80;51.60
64062;DHT22;50308;47.438;-1.528;2022-08-02T09:46:12;25.90;51.70
64062;DHT22;50308;47.438;-1.528;2022-08-02T09:48:52;25.80;51.60
64062;DHT22;50308;47.438;-1.528;2022-08-02T09:51:23;25.90;51.60
64062;DHT22;50308;47.438;-1.528;2022-08-02T09:53:58;25.90;51.60
64062;DHT22;50308;47.438;-1.528;2022-08-02T09:56:26;25.90;51.60
64062;DHT22;50308;47.438;-1.528;2022-08-02T09:58:52;25.90;51.70
64062;DHT22;50308;47.438;-1.528;2022-08-02T10:01:20;25.90;51.60
64062;DHT22;50308;47.438;-1.528;2022-08-02T10:03:54;26.00;51.80
64062;DHT22;50308;47.438;-1.528;2022-08-02T10:06:20;26.00;51.70
64062;DHT22;50308;47.438;-1.528;2022-08-02T10:08:46;26.00;51.70
64062;DHT22;50308;47.438;-1.528;2022-08-02T10:11:13;26.00;51.90
64062;DHT22;50308;47.438;-1.528;2022-08-02T10:13:38;26.00;51.70
64062;DHT22;50308;47.438;-1.528;2022-08-02T10:16:04;26.00;51.70
64062;DHT22;50308;47.438;-1.528;2022-08-02T10:18:31;26.00;51.70
64062;DHT22;50308;47.438;-1.528;2022-08-02T10:21:00;26.00;51.80
64062;DHT22;50308;47.438;-1.528;2022-08-02T10:23:28;26.00;51.70
64062;DHT22;50308;47.438;-1.528;2022-08-02T10:25:59;26.10;51.90
64062;DHT22;50308;47.438;-1.528;2022-08-02T10:28:28;26.10;51.70
64062;DHT22;50308;47.438;-1.528;2022-08-02T10:30:59;26.10;51.70
64062;DHT22;50308;47.438;-1.528;2022-08-02T10:33:26;26.10;51.80
64062;DHT22;50308;47.438;-1.528;2022-08-02T10:35:54;26.10;51.60
64062;DHT22;50308;47.438;-1.528;2022-08-02T10:38:23;26.10;51.50
64062;DHT22;50308;47.438;-1.528;2022-08-02T10:40:51;26.10;51.70
64062;DHT22;50308;47.438;-1.528;2022-08-02T10:43:40;26.10;51.50
64062;DHT22;50308;47.438;-1.528;2022-08-02T10:46:33;26.10;51.50
64062;DHT22;50308;47.438;-1.528;2022-08-02T10:49:20;26.20;51.70
64062;DHT22;50308;47.438;-1.528;2022-08-02T10:54:19;26.20;51.60
64062;DHT22;50308;47.438;-1.528;2022-08-02T10:56:49;26.20;51.70
64062;DHT22;50308;47.438;-1.528;2022-08-02T10:59:32;26.20;51.50
64062;DHT22;50308;47.438;-1.528;2022-08-02T11:02:02;26.20;51.70
64062;DHT22;50308;47.438;-1.528;2022-08-02T11:09:32;26.20;51.70
64062;DHT22;50308;47.438;-1.528;2022-08-02T11:12:09;26.20;51.80
64062;DHT22;50308;47.438;-1.528;2022-08-02T11:14:40;26.20;51.70
64062;DHT22;50308;47.438;-1.528;2022-08-02T11:22:42;26.20;51.80
64062;DHT22;50308;47.438;-1.528;2022-08-02T11:27:55;26.30;52.20
64062;DHT22;50308;47.438;-1.528;2022-08-02T11:30:22;26.30;51.90
64062;DHT22;50308;47.438;-1.528;2022-08-02T11:32:48;26.30;51.70
64062;DHT22;50308;47.438;-1.528;2022-08-02T11:35:15;26.30;51.80
64062;DHT22;50308;47.438;-1.528;2022-08-02T11:37:43;26.30;51.90
64062;DHT22;50308;47.438;-1.528;2022-08-02T11:40:14;26.30;52.20
64062;DHT22;50308;47.438;-1.528;2022-08-02T11:42:43;26.30;52.30
64062;DHT22;50308;47.438;-1.528;2022-08-02T11:45:11;26.30;52.80
64062;DHT22;50308;47.438;-1.528;2022-08-02T11:47:48;26.30;52.80
64062;DHT22;50308;47.438;-1.528;2022-08-02T11:50:15;26.30;52.80
64062;DHT22;50308;47.438;-1.528;2022-08-02T11:52:41;26.30;52.70
64062;DHT22;50308;47.438;-1.528;2022-08-02T11:55:08;26.30;53.00
64062;DHT22;50308;47.438;-1.528;2022-08-02T11:57:34;26.30;53.00
64062;DHT22;50308;47.438;-1.528;2022-08-02T12:00:00;26.30;53.30
64062;DHT22;50308;47.438;-1.528;2022-08-02T12:02:28;26.30;53.10
64062;DHT22;50308;47.438;-1.528;2022-08-02T12:04:57;26.30;53.00
64062;DHT22;50308;47.438;-1.528;2022-08-02T12:07:35;26.30;53.20
64062;DHT22;50308;47.438;-1.528;2022-08-02T12:12:28;26.30;53.40
64062;DHT22;50308;47.438;-1.528;2022-08-02T12:14:53;26.30;53.30
64062;DHT22;50308;47.438;-1.528;2022-08-02T12:17:26;26.30;53.40
64062;DHT22;50308;47.438;-1.528;2022-08-02T12:20:11;26.30;53.50
64062;DHT22;50308;47.438;-1.528;2022-08-02T12:22:38;26.30;53.40
64062;DHT22;50308;47.438;-1.528;2022-08-02T12:25:16;26.30;53.30
64062;DHT22;50308;47.438;-1.528;2022-08-02T12:27:43;26.30;54.40
64062;DHT22;50308;47.438;-1.528;2022-08-02T12:30:12;26.30;53.30
64062;DHT22;50308;47.438;-1.528;2022-08-02T12:32:38;26.30;53.10
64062;DHT22;50308;47.438;-1.528;2022-08-02T12:35:08;26.30;53.10
64062;DHT22;50308;47.438;-1.528;2022-08-02T12:37:36;26.30;52.90
64062;DHT22;50308;47.438;-1.528;2022-08-02T12:40:25;26.40;53.90
64062;DHT22;50308;47.438;-1.528;2022-08-02T12:42:54;26.40;53.10
64062;DHT22;50308;47.438;-1.528;2022-08-02T12:45:21;26.40;52.80
64062;DHT22;50308;47.438;-1.528;2022-08-02T12:47:50;26.40;52.80
64062;DHT22;50308;47.438;-1.528;2022-08-02T12:50:23;26.40;52.90
64062;DHT22;50308;47.438;-1.528;2022-08-02T12:52:49;26.40;52.80
64062;DHT22;50308;47.438;-1.528;2022-08-02T12:55:22;26.40;52.90
64062;DHT22;50308;47.438;-1.528;2022-08-02T12:57:59;26.40;53.20
64062;DHT22;50308;47.438;-1.528;2022-08-02T13:00:29;26.40;53.30
64062;DHT22;50308;47.438;-1.528;2022-08-02T13:02:55;26.40;53.30
64062;DHT22;50308;47.438;-1.528;2022-08-02T13:05:21;26.40;53.20
64062;DHT22;50308;47.438;-1.528;2022-08-02T13:07:47;26.40;53.30
64062;DHT22;50308;47.438;-1.528;2022-08-02T13:10:13;26.40;53.10
64062;DHT22;50308;47.438;-1.528;2022-08-02T13:12:39;26.50;53.20
64062;DHT22;50308;47.438;-1.528;2022-08-02T13:15:09;26.50;53.20
64062;DHT22;50308;47.438;-1.528;2022-08-02T13:17:35;26.50;53.30
64062;DHT22;50308;47.438;-1.528;2022-08-02T13:20:02;26.50;53.10
64062;DHT22;50308;47.438;-1.528;2022-08-02T13:22:28;26.50;53.20
64062;DHT22;50308;47.438;-1.528;2022-08-02T13:24:53;26.50;53.20
64062;DHT22;50308;47.438;-1.528;2022-08-02T13:27:19;26.50;53.00
64062;DHT22;50308;47.438;-1.528;2022-08-02T13:29:45;26.50;52.90
64062;DHT22;50308;47.438;-1.528;2022-08-02T13:32:11;26.50;52.60
64062;DHT22;50308;47.438;-1.528;2022-08-02T13:34:37;26.60;52.30
64062;DHT22;50308;47.438;-1.528;2022-08-02T13:37:04;26.60;52.80
64062;DHT22;50308;47.438;-1.528;2022-08-02T13:39:30;26.60;52.20
64062;DHT22;50308;47.438;-1.528;2022-08-02T13:41:55;26.60;52.90
64062;DHT22;50308;47.438;-1.528;2022-08-02T13:44:21;26.60;53.00
64062;DHT22;50308;47.438;-1.528;2022-08-02T13:46:47;26.70;52.90
64062;DHT22;50308;47.438;-1.528;2022-08-02T13:49:13;26.60;52.80
64062;DHT22;50308;47.438;-1.528;2022-08-02T13:51:39;26.60;52.70
64062;DHT22;50308;47.438;-1.528;2022-08-02T13:54:05;26.60;52.90
64062;DHT22;50308;47.438;-1.528;2022-08-02T13:56:31;26.70;52.90
64062;DHT22;50308;47.438;-1.528;2022-08-02T13:58:56;26.70;53.00
64062;DHT22;50308;47.438;-1.528;2022-08-02T14:01:25;26.70;53.00
64062;DHT22;50308;47.438;-1.528;2022-08-02T14:03:51;26.70;52.80
64062;DHT22;50308;47.438;-1.528;2022-08-02T14:06:20;26.70;52.50
64062;DHT22;50308;47.438;-1.528;2022-08-02T14:08:46;26.70;52.70
64062;DHT22;50308;47.438;-1.528;2022-08-02T14:11:11;26.70;52.60
64062;DHT22;50308;47.438;-1.528;2022-08-02T14:13:37;26.80;52.60
64062;DHT22;50308;47.438;-1.528;2022-08-02T14:16:03;26.80;52.90
64062;DHT22;50308;47.438;-1.528;2022-08-02T14:18:29;26.80;52.50
64062;DHT22;50308;47.438;-1.528;2022-08-02T14:20:55;26.80;52.80
64062;DHT22;50308;47.438;-1.528;2022-08-02T14:23:20;26.80;53.10
64062;DHT22;50308;47.438;-1.528;2022-08-02T14:25:46;26.90;52.30
64062;DHT22;50308;47.438;-1.528;2022-08-02T14:28:12;26.90;52.40
64062;DHT22;50308;47.438;-1.528;2022-08-02T14:30:38;26.90;52.00
64062;DHT22;50308;47.438;-1.528;2022-08-02T14:33:04;26.90;52.30
64062;DHT22;50308;47.438;-1.528;2022-08-02T14:35:29;27.00;51.70
64062;DHT22;50308;47.438;-1.528;2022-08-02T14:37:55;27.00;52.20
64062;DHT22;50308;47.438;-1.528;2022-08-02T14:40:21;27.00;52.50
64062;DHT22;50308;47.438;-1.528;2022-08-02T14:42:48;26.90;52.50
64062;DHT22;50308;47.438;-1.528;2022-08-02T14:45:19;27.00;52.20
64062;DHT22;50308;47.438;-1.528;2022-08-02T14:47:49;27.00;52.60
64062;DHT22;50308;47.438;-1.528;2022-08-02T14:50:15;27.00;52.00
64062;DHT22;50308;47.438;-1.528;2022-08-02T14:52:43;27.00;52.60
64062;DHT22;50308;47.438;-1.528;2022-08-02T14:55:09;27.00;52.20
64062;DHT22;50308;47.438;-1.528;2022-08-02T14:57:35;27.00;52.30
64062;DHT22;50308;47.438;-1.528;2022-08-02T15:00:00;27.00;52.60
64062;DHT22;50308;47.438;-1.528;2022-08-02T15:02:26;27.00;52.00
64062;DHT22;50308;47.438;-1.528;2022-08-02T15:04:52;27.00;52.20
64062;DHT22;50308;47.438;-1.528;2022-08-02T15:07:18;27.10;52.30
64062;DHT22;50308;47.438;-1.528;2022-08-02T15:09:44;27.10;51.70
64062;DHT22;50308;47.438;-1.528;2022-08-02T15:12:10;27.10;51.60
64062;DHT22;50308;47.438;-1.528;2022-08-02T15:14:38;27.20;51.90
64062;DHT22;50308;47.438;-1.528;2022-08-02T15:17:05;27.10;52.10
64062;DHT22;50308;47.438;-1.528;2022-08-02T15:19:31;27.20;51.80
64062;DHT22;50308;47.438;-1.528;2022-08-02T15:21:58;27.20;51.20
64062;DHT22;50308;47.438;-1.528;2022-08-02T15:24:24;27.20;51.90
64062;DHT22;50308;47.438;-1.528;2022-08-02T15:26:50;27.20;51.70
64062;DHT22;50308;47.438;-1.528;2022-08-02T15:29:17;27.20;52.30
64062;DHT22;50308;47.438;-1.528;2022-08-02T15:31:43;27.10;51.40
64062;DHT22;50308;47.438;-1.528;2022-08-02T15:34:09;27.10;51.30
64062;DHT22;50308;47.438;-1.528;2022-08-02T15:36:34;27.10;51.20
64062;DHT22;50308;47.438;-1.528;2022-08-02T15:39:00;27.20;51.30
64062;DHT22;50308;47.438;-1.528;2022-08-02T15:41:26;27.20;51.50
64062;DHT22;50308;47.438;-1.528;2022-08-02T15:43:52;27.20;51.30
64062;DHT22;50308;47.438;-1.528;2022-08-02T15:46:17;27.30;51.00
64062;DHT22;50308;47.438;-1.528;2022-08-02T15:48:43;27.40;51.50
64062;DHT22;50308;47.438;-1.528;2022-08-02T15:51:09;27.40;50.90
64062;DHT22;50308;47.438;-1.528;2022-08-02T15:53:34;27.40;51.20